sensor_id;sensor_type;location;lat;lon;timestamp;P1;durP1;ratioP1;P2;durP2;ratioP2
7398;SDS011;3740;50.700;7.184;2023-12-14T00:01:39;7.83;;;5.73;;
7398;SDS011;3740;50.700;7.184;2023-12-14T00:04:06;7.67;;;5.67;;
7398;SDS011;3740;50.700;7.184;2023-12-14T00:06:32;6.60;;;5.90;;
7398;SDS011;3740;50.700;7.184;2023-12-14T00:08:57;7.27;;;5.30;;
7398;SDS011;3740;50.700;7.184;2023-12-14T00:11:23;6.80;;;4.97;;
7398;SDS011;3740;50.700;7.184;2023-12-14T00:13:48;6.83;;;5.30;;
7398;SDS011;3740;50.700;7.184;2023-12-14T00:16:14;8.37;;;5.57;;
7398;SDS011;3740;50.700;7.184;2023-12-14T00:18:39;7.67;;;5.73;;
7398;SDS011;3740;50.700;7.184;2023-12-14T00:21:05;8.93;;;6.37;;
7398;SDS011;3740;50.700;7.184;2023-12-14T00:23:31;8.43;;;6.17;;
7398;SDS011;3740;50.700;7.184;2023-12-14T00:25:56;8.23;;;6.20;;
7398;SDS011;3740;50.700;7.184;2023-12-14T00:28:22;6.37;;;5.63;;
7398;SDS011;3740;50.700;7.184;2023-12-14T00:30:47;11.03;;;6.57;;
7398;SDS011;3740;50.700;7.184;2023-12-14T00:33:13;7.77;;;6.07;;
7398;SDS011;3740;50.700;7.184;2023-12-14T00:35:39;7.97;;;6.40;;
7398;SDS011;3740;50.700;7.184;2023-12-14T00:38:04;9.00;;;6.07;;
7398;SDS011;3740;50.700;7.184;2023-12-14T00:40:30;8.43;;;6.30;;
7398;SDS011;3740;50.700;7.184;2023-12-14T00:42:55;7.87;;;6.20;;
7398;SDS011;3740;50.700;7.184;2023-12-14T00:45:21;9.90;;;6.37;;
7398;SDS011;3740;50.700;7.184;2023-12-14T00:47:46;10.63;;;6.50;;
7398;SDS011;3740;50.700;7.184;2023-12-14T00:50:12;7.57;;;6.20;;
7398;SDS011;3740;50.700;7.184;2023-12-14T00:52:37;9.07;;;6.50;;
7398;SDS011;3740;50.700;7.184;2023-12-14T00:55:03;7.80;;;6.70;;
7398;SDS011;3740;50.700;7.184;2023-12-14T00:57:29;8.43;;;6.40;;
7398;SDS011;3740;50.700;7.184;2023-12-14T00:59:54;9.43;;;6.40;;
7398;SDS011;3740;50.700;7.184;2023-12-14T01:02:20;9.13;;;6.37;;
7398;SDS011;3740;50.700;7.184;2023-12-14T01:04:45;8.43;;;6.20;;
7398;SDS011;3740;50.700;7.184;2023-12-14T01:07:11;9.07;;;6.40;;
7398;SDS011;3740;50.700;7.184;2023-12-14T01:09:37;7.10;;;6.40;;
7398;SDS011;3740;50.700;7.184;2023-12-14T01:12:02;7.67;;;6.60;;
7398;SDS011;3740;50.700;7.184;2023-12-14T01:14:28;10.70;;;7.27;;
7398;SDS011;3740;50.700;7.184;2023-12-14T01:16:53;7.30;;;6.60;;
7398;SDS011;3740;50.700;7.184;2023-12-14T01:19:19;7.53;;;6.30;;
7398;SDS011;3740;50.700;7.184;2023-12-14T01:21:45;9.30;;;7.00;;
7398;SDS011;3740;50.700;7.184;2023-12-14T01:24:11;8.93;;;7.13;;
7398;SDS011;3740;50.700;7.184;2023-12-14T01:26:36;8.10;;;7.13;;
7398;SDS011;3740;50.700;7.184;2023-12-14T01:29:02;9.00;;;7.23;;
7398;SDS011;3740;50.700;7.184;2023-12-14T01:31:27;8.60;;;6.63;;
7398;SDS011;3740;50.700;7.184;2023-12-14T01:33:53;9.20;;;6.70;;
7398;SDS011;3740;50.700;7.184;2023-12-14T01:36:22;9.63;;;7.97;;
7398;SDS011;3740;50.700;7.184;2023-12-14T01:38:49;8.83;;;7.47;;
7398;SDS011;3740;50.700;7.184;2023-12-14T01:41:14;8.77;;;7.30;;
7398;SDS011;3740;50.700;7.184;2023-12-14T01:43:40;7.67;;;6.87;;
7398;SDS011;3740;50.700;7.184;2023-12-14T01:46:06;10.27;;;7.53;;
7398;SDS011;3740;50.700;7.184;2023-12-14T01:48:32;8.13;;;7.27;;
7398;SDS011;3740;50.700;7.184;2023-12-14T01:50:57;9.10;;;7.20;;
7398;SDS011;3740;50.700;7.184;2023-12-14T01:53:23;7.73;;;6.93;;
7398;SDS011;3740;50.700;7.184;2023-12-14T01:55:48;9.53;;;7.27;;
7398;SDS011;3740;50.700;7.184;2023-12-14T01:58:14;7.87;;;7.07;;
7398;SDS011;3740;50.700;7.184;2023-12-14T02:00:41;8.33;;;6.70;;
7398;SDS011;3740;50.700;7.184;2023-12-14T02:03:17;8.70;;;6.83;;
7398;SDS011;3740;50.700;7.184;2023-12-14T02:05:43;7.63;;;6.37;;
7398;SDS011;3740;50.700;7.184;2023-12-14T02:08:09;7.83;;;6.53;;
7398;SDS011;3740;50.700;7.184;2023-12-14T02:10:34;8.60;;;6.60;;
7398;SDS011;3740;50.700;7.184;2023-12-14T02:13:03;6.77;;;6.07;;
7398;SDS011;3740;50.700;7.184;2023-12-14T02:15:28;8.40;;;6.27;;
7398;SDS011;3740;50.700;7.184;2023-12-14T02:17:54;7.27;;;6.00;;
7398;SDS011;3740;50.700;7.184;2023-12-14T02:20:20;7.00;;;5.63;;
7398;SDS011;3740;50.700;7.184;2023-12-14T02:22:49;11.77;;;6.47;;
7398;SDS011;3740;50.700;7.184;2023-12-14T02:25:16;8.33;;;5.53;;
7398;SDS011;3740;50.700;7.184;2023-12-14T02:27:42;7.13;;;5.80;;
7398;SDS011;3740;50.700;7.184;2023-12-14T02:30:08;8.47;;;6.10;;
7398;SDS011;3740;50.700;7.184;2023-12-14T02:32:34;8.63;;;6.03;;
7398;SDS011;3740;50.700;7.184;2023-12-14T02:35:00;8.00;;;6.23;;
7398;SDS011;3740;50.700;7.184;2023-12-14T02:37:25;10.43;;;6.43;;
7398;SDS011;3740;50.700;7.184;2023-12-14T02:39:51;8.10;;;6.43;;
7398;SDS011;3740;50.700;7.184;2023-12-14T02:42:16;7.80;;;6.10;;
7398;SDS011;3740;50.700;7.184;2023-12-14T02:44:42;9.27;;;6.37;;
7398;SDS011;3740;50.700;7.184;2023-12-14T02:47:07;7.53;;;6.27;;
7398;SDS011;3740;50.700;7.184;2023-12-14T02:49:33;9.80;;;6.40;;
7398;SDS011;3740;50.700;7.184;2023-12-14T02:51:58;7.00;;;6.17;;
7398;SDS011;3740;50.700;7.184;2023-12-14T02:54:24;7.03;;;5.90;;
7398;SDS011;3740;50.700;7.184;2023-12-14T02:56:50;8.57;;;6.20;;
7398;SDS011;3740;50.700;7.184;2023-12-14T02:59:15;7.77;;;5.90;;
7398;SDS011;3740;50.700;7.184;2023-12-14T03:01:41;7.53;;;6.63;;
7398;SDS011;3740;50.700;7.184;2023-12-14T03:04:06;7.10;;;6.27;;
7398;SDS011;3740;50.700;7.184;2023-12-14T03:06:32;8.13;;;6.87;;
7398;SDS011;3740;50.700;7.184;2023-12-14T03:08:58;7.00;;;6.30;;
7398;SDS011;3740;50.700;7.184;2023-12-14T03:11:24;9.83;;;6.57;;
7398;SDS011;3740;50.700;7.184;2023-12-14T03:13:50;7.80;;;6.77;;
7398;SDS011;3740;50.700;7.184;2023-12-14T03:16:15;10.80;;;7.77;;
7398;SDS011;3740;50.700;7.184;2023-12-14T03:18:44;9.67;;;7.60;;
7398;SDS011;3740;50.700;7.184;2023-12-14T03:21:10;12.47;;;8.63;;
7398;SDS011;3740;50.700;7.184;2023-12-14T03:23:35;10.80;;;8.03;;
7398;SDS011;3740;50.700;7.184;2023-12-14T03:26:01;10.53;;;8.63;;
7398;SDS011;3740;50.700;7.184;2023-12-14T03:28:27;14.40;;;9.97;;
7398;SDS011;3740;50.700;7.184;2023-12-14T03:30:53;16.57;;;12.43;;
7398;SDS011;3740;50.700;7.184;2023-12-14T03:33:18;18.07;;;13.00;;
7398;SDS011;3740;50.700;7.184;2023-12-14T03:35:44;14.87;;;11.83;;
7398;SDS011;3740;50.700;7.184;2023-12-14T03:38:12;18.00;;;14.37;;
7398;SDS011;3740;50.700;7.184;2023-12-14T03:40:38;19.77;;;14.20;;
7398;SDS011;3740;50.700;7.184;2023-12-14T03:43:04;21.03;;;15.83;;
7398;SDS011;3740;50.700;7.184;2023-12-14T03:45:30;18.77;;;15.07;;
7398;SDS011;3740;50.700;7.184;2023-12-14T03:47:55;18.20;;;14.80;;
7398;SDS011;3740;50.700;7.184;2023-12-14T03:50:21;19.50;;;16.10;;
7398;SDS011;3740;50.700;7.184;2023-12-14T03:52:47;18.43;;;15.20;;
7398;SDS011;3740;50.700;7.184;2023-12-14T03:55:13;20.20;;;15.27;;
7398;SDS011;3740;50.700;7.184;2023-12-14T03:57:40;21.90;;;15.93;;
7398;SDS011;3740;50.700;7.184;2023-12-14T04:00:07;19.83;;;16.23;;
7398;SDS011;3740;50.700;7.184;2023-12-14T04:02:36;26.47;;;19.50;;
7398;SDS011;3740;50.700;7.184;2023-12-14T04:05:01;26.43;;;19.93;;
7398;SDS011;3740;50.700;7.184;2023-12-14T04:07:27;27.10;;;20.93;;
7398;SDS011;3740;50.700;7.184;2023-12-14T04:09:52;30.33;;;21.97;;
7398;SDS011;3740;50.700;7.184;2023-12-14T04:12:18;33.57;;;26.80;;
7398;SDS011;3740;50.700;7.184;2023-12-14T04:14:44;38.03;;;27.77;;
7398;SDS011;3740;50.700;7.184;2023-12-14T04:17:10;40.00;;;30.53;;
7398;SDS011;3740;50.700;7.184;2023-12-14T04:19:38;43.47;;;32.43;;
7398;SDS011;3740;50.700;7.184;2023-12-14T04:22:04;44.30;;;31.73;;
7398;SDS011;3740;50.700;7.184;2023-12-14T04:24:30;48.30;;;33.23;;
7398;SDS011;3740;50.700;7.184;2023-12-14T04:26:55;52.23;;;34.17;;
7398;SDS011;3740;50.700;7.184;2023-12-14T04:29:21;46.33;;;32.80;;
7398;SDS011;3740;50.700;7.184;2023-12-14T04:31:46;53.70;;;35.80;;
7398;SDS011;3740;50.700;7.184;2023-12-14T04:34:13;47.20;;;32.30;;
7398;SDS011;3740;50.700;7.184;2023-12-14T04:36:41;50.83;;;34.87;;
7398;SDS011;3740;50.700;7.184;2023-12-14T04:39:07;46.53;;;32.33;;
7398;SDS011;3740;50.700;7.184;2023-12-14T04:41:32;43.93;;;32.83;;
7398;SDS011;3740;50.700;7.184;2023-12-14T04:43:58;48.30;;;33.83;;
7398;SDS011;3740;50.700;7.184;2023-12-14T04:46:24;42.07;;;31.13;;
7398;SDS011;3740;50.700;7.184;2023-12-14T04:48:49;43.93;;;34.03;;
7398;SDS011;3740;50.700;7.184;2023-12-14T04:51:15;46.87;;;34.83;;
7398;SDS011;3740;50.700;7.184;2023-12-14T04:53:40;43.97;;;32.97;;
7398;SDS011;3740;50.700;7.184;2023-12-14T04:56:09;43.23;;;31.70;;
7398;SDS011;3740;50.700;7.184;2023-12-14T04:58:36;37.57;;;30.17;;
7398;SDS011;3740;50.700;7.184;2023-12-14T05:01:03;40.53;;;31.00;;
7398;SDS011;3740;50.700;7.184;2023-12-14T05:03:28;38.33;;;29.97;;
7398;SDS011;3740;50.700;7.184;2023-12-14T05:05:54;38.97;;;31.10;;
7398;SDS011;3740;50.700;7.184;2023-12-14T05:08:19;35.77;;;29.30;;
7398;SDS011;3740;50.700;7.184;2023-12-14T05:10:45;38.37;;;30.87;;
7398;SDS011;3740;50.700;7.184;2023-12-14T05:13:10;35.83;;;29.53;;
7398;SDS011;3740;50.700;7.184;2023-12-14T05:15:36;36.17;;;30.40;;
7398;SDS011;3740;50.700;7.184;2023-12-14T05:18:02;33.83;;;28.30;;
7398;SDS011;3740;50.700;7.184;2023-12-14T05:20:27;33.03;;;28.70;;
7398;SDS011;3740;50.700;7.184;2023-12-14T05:22:53;30.43;;;26.83;;
7398;SDS011;3740;50.700;7.184;2023-12-14T05:25:18;28.37;;;24.33;;
7398;SDS011;3740;50.700;7.184;2023-12-14T05:27:44;27.13;;;23.50;;
7398;SDS011;3740;50.700;7.184;2023-12-14T05:30:09;27.50;;;23.70;;
7398;SDS011;3740;50.700;7.184;2023-12-14T05:32:35;25.53;;;22.73;;
7398;SDS011;3740;50.700;7.184;2023-12-14T05:35:01;22.87;;;20.43;;
7398;SDS011;3740;50.700;7.184;2023-12-14T05:37:26;26.13;;;23.47;;
7398;SDS011;3740;50.700;7.184;2023-12-14T05:39:52;24.67;;;22.17;;
7398;SDS011;3740;50.700;7.184;2023-12-14T05:42:17;22.27;;;19.87;;
7398;SDS011;3740;50.700;7.184;2023-12-14T05:44:43;25.63;;;22.90;;
7398;SDS011;3740;50.700;7.184;2023-12-14T05:47:10;26.93;;;24.03;;
7398;SDS011;3740;50.700;7.184;2023-12-14T05:49:36;29.70;;;26.70;;
7398;SDS011;3740;50.700;7.184;2023-12-14T05:52:02;25.47;;;22.87;;
7398;SDS011;3740;50.700;7.184;2023-12-14T05:54:28;29.33;;;26.13;;
7398;SDS011;3740;50.700;7.184;2023-12-14T05:56:53;25.73;;;23.07;;
7398;SDS011;3740;50.700;7.184;2023-12-14T05:59:19;27.07;;;24.27;;
7398;SDS011;3740;50.700;7.184;2023-12-14T06:01:44;25.73;;;22.87;;
7398;SDS011;3740;50.700;7.184;2023-12-14T06:04:10;25.13;;;22.60;;
7398;SDS011;3740;50.700;7.184;2023-12-14T06:06:37;24.50;;;21.90;;
7398;SDS011;3740;50.700;7.184;2023-12-14T06:09:04;25.37;;;22.67;;
7398;SDS011;3740;50.700;7.184;2023-12-14T06:11:32;26.43;;;23.40;;
7398;SDS011;3740;50.700;7.184;2023-12-14T06:13:58;27.40;;;24.50;;
7398;SDS011;3740;50.700;7.184;2023-12-14T06:16:24;27.97;;;25.00;;
7398;SDS011;3740;50.700;7.184;2023-12-14T06:18:50;28.87;;;24.70;;
7398;SDS011;3740;50.700;7.184;2023-12-14T06:21:15;29.40;;;26.13;;
7398;SDS011;3740;50.700;7.184;2023-12-14T06:23:41;31.97;;;27.63;;
7398;SDS011;3740;50.700;7.184;2023-12-14T06:26:07;32.83;;;28.50;;
7398;SDS011;3740;50.700;7.184;2023-12-14T06:28:32;34.93;;;29.07;;
7398;SDS011;3740;50.700;7.184;2023-12-14T06:30:58;32.00;;;28.03;;
7398;SDS011;3740;50.700;7.184;2023-12-14T06:33:23;34.03;;;29.97;;
7398;SDS011;3740;50.700;7.184;2023-12-14T06:35:49;34.80;;;29.83;;
7398;SDS011;3740;50.700;7.184;2023-12-14T06:38:15;39.33;;;31.47;;
7398;SDS011;3740;50.700;7.184;2023-12-14T06:40:40;39.47;;;31.63;;
7398;SDS011;3740;50.700;7.184;2023-12-14T06:43:06;41.93;;;31.73;;
7398;SDS011;3740;50.700;7.184;2023-12-14T06:45:31;36.90;;;30.87;;
7398;SDS011;3740;50.700;7.184;2023-12-14T06:47:57;38.90;;;31.33;;
7398;SDS011;3740;50.700;7.184;2023-12-14T06:50:22;39.07;;;31.37;;
7398;SDS011;3740;50.700;7.184;2023-12-14T06:52:48;39.87;;;33.03;;
7398;SDS011;3740;50.700;7.184;2023-12-14T06:55:14;43.23;;;32.97;;
7398;SDS011;3740;50.700;7.184;2023-12-14T06:57:42;42.00;;;33.93;;
7398;SDS011;3740;50.700;7.184;2023-12-14T07:00:08;42.20;;;33.90;;
7398;SDS011;3740;50.700;7.184;2023-12-14T07:02:34;39.93;;;31.53;;
7398;SDS011;3740;50.700;7.184;2023-12-14T07:05:00;41.83;;;33.80;;
7398;SDS011;3740;50.700;7.184;2023-12-14T07:07:25;48.33;;;37.07;;
7398;SDS011;3740;50.700;7.184;2023-12-14T07:09:51;60.50;;;41.87;;
7398;SDS011;3740;50.700;7.184;2023-12-14T07:12:17;53.70;;;42.33;;
7398;SDS011;3740;50.700;7.184;2023-12-14T07:14:42;55.17;;;41.90;;
7398;SDS011;3740;50.700;7.184;2023-12-14T07:17:08;55.60;;;40.93;;
7398;SDS011;3740;50.700;7.184;2023-12-14T07:19:34;52.60;;;40.67;;
7398;SDS011;3740;50.700;7.184;2023-12-14T07:22:00;57.97;;;43.37;;
7398;SDS011;3740;50.700;7.184;2023-12-14T07:24:26;59.90;;;42.93;;
7398;SDS011;3740;50.700;7.184;2023-12-14T07:26:51;58.70;;;41.47;;
7398;SDS011;3740;50.700;7.184;2023-12-14T07:29:17;56.07;;;41.33;;
7398;SDS011;3740;50.700;7.184;2023-12-14T07:31:42;58.30;;;41.70;;
7398;SDS011;3740;50.700;7.184;2023-12-14T07:34:08;58.00;;;42.03;;
7398;SDS011;3740;50.700;7.184;2023-12-14T07:36:34;56.30;;;40.43;;
7398;SDS011;3740;50.700;7.184;2023-12-14T07:38:59;55.63;;;41.77;;
7398;SDS011;3740;50.700;7.184;2023-12-14T07:41:26;58.47;;;40.63;;
7398;SDS011;3740;50.700;7.184;2023-12-14T07:43:54;60.00;;;41.70;;
7398;SDS011;3740;50.700;7.184;2023-12-14T07:46:20;61.67;;;40.67;;
7398;SDS011;3740;50.700;7.184;2023-12-14T07:48:46;55.37;;;39.17;;
7398;SDS011;3740;50.700;7.184;2023-12-14T07:51:12;59.40;;;40.90;;
7398;SDS011;3740;50.700;7.184;2023-12-14T07:53:38;58.37;;;41.07;;
7398;SDS011;3740;50.700;7.184;2023-12-14T07:56:03;57.13;;;39.20;;
7398;SDS011;3740;50.700;7.184;2023-12-14T07:58:29;52.20;;;39.03;;
7398;SDS011;3740;50.700;7.184;2023-12-14T08:00:55;52.80;;;36.63;;
7398;SDS011;3740;50.700;7.184;2023-12-14T08:03:21;53.33;;;36.17;;
7398;SDS011;3740;50.700;7.184;2023-12-14T08:05:47;51.37;;;37.10;;
7398;SDS011;3740;50.700;7.184;2023-12-14T08:08:12;52.37;;;36.73;;
7398;SDS011;3740;50.700;7.184;2023-12-14T08:10:38;49.37;;;34.87;;
7398;SDS011;3740;50.700;7.184;2023-12-14T08:13:03;49.53;;;34.40;;
7398;SDS011;3740;50.700;7.184;2023-12-14T08:15:29;44.87;;;31.30;;
7398;SDS011;3740;50.700;7.184;2023-12-14T08:17:55;45.60;;;32.50;;
7398;SDS011;3740;50.700;7.184;2023-12-14T08:20:20;40.43;;;30.30;;
7398;SDS011;3740;50.700;7.184;2023-12-14T08:22:47;44.13;;;30.70;;
7398;SDS011;3740;50.700;7.184;2023-12-14T08:25:12;42.37;;;30.83;;
7398;SDS011;3740;50.700;7.184;2023-12-14T08:27:42;39.10;;;29.47;;
7398;SDS011;3740;50.700;7.184;2023-12-14T08:30:09;45.07;;;31.37;;
7398;SDS011;3740;50.700;7.184;2023-12-14T08:32:37;44.40;;;32.10;;
7398;SDS011;3740;50.700;7.184;2023-12-14T08:35:02;46.73;;;32.80;;
7398;SDS011;3740;50.700;7.184;2023-12-14T08:37:28;47.80;;;32.77;;
7398;SDS011;3740;50.700;7.184;2023-12-14T08:39:54;51.23;;;33.87;;
7398;SDS011;3740;50.700;7.184;2023-12-14T08:42:20;54.37;;;35.47;;
7398;SDS011;3740;50.700;7.184;2023-12-14T08:44:46;59.63;;;37.33;;
7398;SDS011;3740;50.700;7.184;2023-12-14T08:47:11;64.03;;;39.37;;
7398;SDS011;3740;50.700;7.184;2023-12-14T08:49:37;54.67;;;36.13;;
7398;SDS011;3740;50.700;7.184;2023-12-14T08:52:02;50.50;;;33.07;;
7398;SDS011;3740;50.700;7.184;2023-12-14T08:54:29;49.87;;;31.70;;
7398;SDS011;3740;50.700;7.184;2023-12-14T08:56:55;52.67;;;34.57;;
7398;SDS011;3740;50.700;7.184;2023-12-14T08:59:20;50.70;;;32.87;;
7398;SDS011;3740;50.700;7.184;2023-12-14T09:01:46;51.63;;;35.47;;
7398;SDS011;3740;50.700;7.184;2023-12-14T09:04:11;46.43;;;30.80;;
7398;SDS011;3740;50.700;7.184;2023-12-14T09:06:38;51.97;;;32.60;;
7398;SDS011;3740;50.700;7.184;2023-12-14T09:09:07;45.47;;;30.37;;
7398;SDS011;3740;50.700;7.184;2023-12-14T09:11:32;46.03;;;31.63;;
7398;SDS011;3740;50.700;7.184;2023-12-14T09:14:00;43.53;;;29.63;;
7398;SDS011;3740;50.700;7.184;2023-12-14T09:16:25;45.10;;;30.07;;
7398;SDS011;3740;50.700;7.184;2023-12-14T09:18:51;43.60;;;28.70;;
7398;SDS011;3740;50.700;7.184;2023-12-14T09:21:16;42.23;;;28.70;;
7398;SDS011;3740;50.700;7.184;2023-12-14T09:23:42;38.27;;;25.33;;
7398;SDS011;3740;50.700;7.184;2023-12-14T09:26:07;37.97;;;25.60;;
7398;SDS011;3740;50.700;7.184;2023-12-14T09:28:33;33.93;;;24.83;;
7398;SDS011;3740;50.700;7.184;2023-12-14T09:30:59;33.83;;;23.90;;
7398;SDS011;3740;50.700;7.184;2023-12-14T09:33:24;33.83;;;23.17;;
7398;SDS011;3740;50.700;7.184;2023-12-14T09:35:50;29.97;;;21.80;;
7398;SDS011;3740;50.700;7.184;2023-12-14T09:38:15;27.93;;;21.47;;
7398;SDS011;3740;50.700;7.184;2023-12-14T09:40:44;28.47;;;21.53;;
7398;SDS011;3740;50.700;7.184;2023-12-14T09:43:10;27.47;;;20.57;;
7398;SDS011;3740;50.700;7.184;2023-12-14T09:45:36;29.87;;;21.03;;
7398;SDS011;3740;50.700;7.184;2023-12-14T09:48:06;25.93;;;20.53;;
7398;SDS011;3740;50.700;7.184;2023-12-14T09:50:33;27.23;;;20.63;;
7398;SDS011;3740;50.700;7.184;2023-12-14T09:53:00;29.97;;;21.17;;
7398;SDS011;3740;50.700;7.184;2023-12-14T09:55:26;31.03;;;21.00;;
7398;SDS011;3740;50.700;7.184;2023-12-14T09:57:52;30.63;;;20.40;;
7398;SDS011;3740;50.700;7.184;2023-12-14T10:03:25;27.50;;;20.30;;
7398;SDS011;3740;50.700;7.184;2023-12-14T10:05:54;27.30;;;20.80;;
7398;SDS011;3740;50.700;7.184;2023-12-14T10:08:20;26.63;;;19.87;;
7398;SDS011;3740;50.700;7.184;2023-12-14T10:10:47;22.27;;;18.30;;
7398;SDS011;3740;50.700;7.184;2023-12-14T10:13:14;26.63;;;19.87;;
7398;SDS011;3740;50.700;7.184;2023-12-14T10:15:47;21.57;;;18.47;;
7398;SDS011;3740;50.700;7.184;2023-12-14T10:18:23;26.10;;;20.13;;
7398;SDS011;3740;50.700;7.184;2023-12-14T10:20:49;23.77;;;19.00;;
7398;SDS011;3740;50.700;7.184;2023-12-14T10:23:15;26.80;;;21.43;;
7398;SDS011;3740;50.700;7.184;2023-12-14T10:25:41;27.00;;;21.00;;
7398;SDS011;3740;50.700;7.184;2023-12-14T10:28:07;26.03;;;20.07;;
7398;SDS011;3740;50.700;7.184;2023-12-14T10:30:33;23.77;;;18.77;;
7398;SDS011;3740;50.700;7.184;2023-12-14T10:32:59;25.17;;;18.97;;
7398;SDS011;3740;50.700;7.184;2023-12-14T10:35:25;21.43;;;16.87;;
7398;SDS011;3740;50.700;7.184;2023-12-14T10:37:51;23.83;;;19.57;;
7398;SDS011;3740;50.700;7.184;2023-12-14T10:40:17;20.57;;;17.27;;
7398;SDS011;3740;50.700;7.184;2023-12-14T10:42:43;25.10;;;19.73;;
7398;SDS011;3740;50.700;7.184;2023-12-14T10:45:11;22.60;;;18.60;;
7398;SDS011;3740;50.700;7.184;2023-12-14T10:47:42;21.23;;;18.77;;
7398;SDS011;3740;50.700;7.184;2023-12-14T10:50:09;23.70;;;19.77;;
7398;SDS011;3740;50.700;7.184;2023-12-14T10:52:37;21.33;;;17.03;;
7398;SDS011;3740;50.700;7.184;2023-12-14T10:55:18;19.67;;;17.57;;
7398;SDS011;3740;50.700;7.184;2023-12-14T10:57:48;20.73;;;18.17;;
7398;SDS011;3740;50.700;7.184;2023-12-14T11:00:16;20.17;;;17.53;;
7398;SDS011;3740;50.700;7.184;2023-12-14T11:02:45;20.17;;;17.97;;
7398;SDS011;3740;50.700;7.184;2023-12-14T11:05:12;21.87;;;19.57;;
7398;SDS011;3740;50.700;7.184;2023-12-14T11:07:49;26.40;;;22.57;;
7398;SDS011;3740;50.700;7.184;2023-12-14T11:10:26;26.23;;;21.37;;
7398;SDS011;3740;50.700;7.184;2023-12-14T11:12:57;26.67;;;21.63;;
7398;SDS011;3740;50.700;7.184;2023-12-14T11:15:27;25.83;;;20.50;;
7398;SDS011;3740;50.700;7.184;2023-12-14T11:20:47;24.10;;;20.83;;
7398;SDS011;3740;50.700;7.184;2023-12-14T11:23:17;24.70;;;20.07;;
7398;SDS011;3740;50.700;7.184;2023-12-14T11:25:51;25.87;;;21.73;;
7398;SDS011;3740;50.700;7.184;2023-12-14T11:28:18;29.73;;;23.13;;
7398;SDS011;3740;50.700;7.184;2023-12-14T11:30:45;24.47;;;20.50;;
7398;SDS011;3740;50.700;7.184;2023-12-14T11:33:11;24.33;;;19.03;;
7398;SDS011;3740;50.700;7.184;2023-12-14T11:35:38;24.70;;;19.13;;
7398;SDS011;3740;50.700;7.184;2023-12-14T11:38:03;23.80;;;18.57;;
7398;SDS011;3740;50.700;7.184;2023-12-14T11:40:35;25.13;;;19.00;;
7398;SDS011;3740;50.700;7.184;2023-12-14T11:43:02;21.80;;;18.40;;
7398;SDS011;3740;50.700;7.184;2023-12-14T11:45:32;22.77;;;18.93;;
7398;SDS011;3740;50.700;7.184;2023-12-14T11:48:08;23.47;;;17.70;;
7398;SDS011;3740;50.700;7.184;2023-12-14T11:50:36;18.83;;;16.23;;
7398;SDS011;3740;50.700;7.184;2023-12-14T11:53:06;18.27;;;15.17;;
7398;SDS011;3740;50.700;7.184;2023-12-14T11:55:33;26.10;;;22.37;;
7398;SDS011;3740;50.700;7.184;2023-12-14T11:58:00;22.33;;;19.93;;
7398;SDS011;3740;50.700;7.184;2023-12-14T12:00:26;22.53;;;20.13;;
7398;SDS011;3740;50.700;7.184;2023-12-14T12:05:36;23.23;;;20.20;;
7398;SDS011;3740;50.700;7.184;2023-12-14T12:08:12;23.73;;;20.07;;
7398;SDS011;3740;50.700;7.184;2023-12-14T12:10:39;23.40;;;19.70;;
7398;SDS011;3740;50.700;7.184;2023-12-14T12:13:15;23.90;;;21.37;;
7398;SDS011;3740;50.700;7.184;2023-12-14T12:15:42;22.77;;;20.30;;
7398;SDS011;3740;50.700;7.184;2023-12-14T12:18:09;24.67;;;21.57;;
7398;SDS011;3740;50.700;7.184;2023-12-14T12:20:35;24.10;;;21.47;;
7398;SDS011;3740;50.700;7.184;2023-12-14T12:23:01;25.20;;;22.43;;
7398;SDS011;3740;50.700;7.184;2023-12-14T12:25:27;25.90;;;23.20;;
7398;SDS011;3740;50.700;7.184;2023-12-14T12:27:54;24.13;;;21.53;;
7398;SDS011;3740;50.700;7.184;2023-12-14T12:30:20;25.03;;;22.33;;
7398;SDS011;3740;50.700;7.184;2023-12-14T12:32:46;24.70;;;22.10;;
7398;SDS011;3740;50.700;7.184;2023-12-14T12:35:12;26.50;;;22.63;;
7398;SDS011;3740;50.700;7.184;2023-12-14T12:37:38;24.67;;;21.90;;
7398;SDS011;3740;50.700;7.184;2023-12-14T12:40:05;24.83;;;21.80;;
7398;SDS011;3740;50.700;7.184;2023-12-14T12:42:32;25.40;;;21.50;;
7398;SDS011;3740;50.700;7.184;2023-12-14T12:44:57;23.47;;;20.97;;
7398;SDS011;3740;50.700;7.184;2023-12-14T12:47:23;24.80;;;21.73;;
7398;SDS011;3740;50.700;7.184;2023-12-14T12:49:48;23.97;;;21.40;;
7398;SDS011;3740;50.700;7.184;2023-12-14T12:52:14;25.50;;;22.07;;
7398;SDS011;3740;50.700;7.184;2023-12-14T12:54:40;23.13;;;20.73;;
7398;SDS011;3740;50.700;7.184;2023-12-14T12:57:05;22.90;;;20.43;;
7398;SDS011;3740;50.700;7.184;2023-12-14T12:59:31;23.03;;;20.70;;
7398;SDS011;3740;50.700;7.184;2023-12-14T13:01:57;22.80;;;20.30;;
7398;SDS011;3740;50.700;7.184;2023-12-14T13:04:23;22.87;;;19.80;;
7398;SDS011;3740;50.700;7.184;2023-12-14T13:06:49;24.63;;;22.00;;
7398;SDS011;3740;50.700;7.184;2023-12-14T13:09:15;22.47;;;20.17;;
7398;SDS011;3740;50.700;7.184;2023-12-14T13:11:45;23.10;;;18.97;;
7398;SDS011;3740;50.700;7.184;2023-12-14T13:14:11;22.00;;;19.57;;
7398;SDS011;3740;50.700;7.184;2023-12-14T13:16:37;22.00;;;19.63;;
7398;SDS011;3740;50.700;7.184;2023-12-14T13:19:03;21.50;;;19.20;;
7398;SDS011;3740;50.700;7.184;2023-12-14T13:21:30;21.57;;;19.27;;
7398;SDS011;3740;50.700;7.184;2023-12-14T13:23:56;20.73;;;18.53;;
7398;SDS011;3740;50.700;7.184;2023-12-14T13:26:22;21.57;;;19.27;;
7398;SDS011;3740;50.700;7.184;2023-12-14T13:28:54;21.20;;;18.97;;
7398;SDS011;3740;50.700;7.184;2023-12-14T13:31:19;21.13;;;18.83;;
7398;SDS011;3740;50.700;7.184;2023-12-14T13:33:46;21.43;;;19.07;;
7398;SDS011;3740;50.700;7.184;2023-12-14T13:36:12;22.03;;;19.00;;
7398;SDS011;3740;50.700;7.184;2023-12-14T13:38:39;20.83;;;18.60;;
7398;SDS011;3740;50.700;7.184;2023-12-14T13:41:06;21.90;;;19.70;;
7398;SDS011;3740;50.700;7.184;2023-12-14T13:43:32;19.77;;;17.83;;
7398;SDS011;3740;50.700;7.184;2023-12-14T13:45:57;19.10;;;17.30;;
7398;SDS011;3740;50.700;7.184;2023-12-14T13:48:23;20.47;;;18.40;;
7398;SDS011;3740;50.700;7.184;2023-12-14T13:50:49;20.83;;;18.67;;
7398;SDS011;3740;50.700;7.184;2023-12-14T13:53:15;20.40;;;18.30;;
7398;SDS011;3740;50.700;7.184;2023-12-14T13:55:41;20.17;;;18.07;;
7398;SDS011;3740;50.700;7.184;2023-12-14T13:58:06;20.13;;;18.13;;
7398;SDS011;3740;50.700;7.184;2023-12-14T14:00:32;20.67;;;18.23;;
7398;SDS011;3740;50.700;7.184;2023-12-14T14:02:59;19.23;;;17.33;;
7398;SDS011;3740;50.700;7.184;2023-12-14T14:05:25;20.80;;;18.60;;
7398;SDS011;3740;50.700;7.184;2023-12-14T14:07:51;20.00;;;17.90;;
7398;SDS011;3740;50.700;7.184;2023-12-14T14:10:17;18.90;;;17.00;;
7398;SDS011;3740;50.700;7.184;2023-12-14T14:12:43;20.97;;;18.77;;
7398;SDS011;3740;50.700;7.184;2023-12-14T14:15:09;20.80;;;18.70;;
7398;SDS011;3740;50.700;7.184;2023-12-14T14:17:35;20.83;;;18.63;;
7398;SDS011;3740;50.700;7.184;2023-12-14T14:20:00;21.77;;;19.50;;
7398;SDS011;3740;50.700;7.184;2023-12-14T14:22:26;21.10;;;19.00;;
7398;SDS011;3740;50.700;7.184;2023-12-14T14:24:52;20.23;;;18.27;;
7398;SDS011;3740;50.700;7.184;2023-12-14T14:27:17;19.83;;;17.83;;
7398;SDS011;3740;50.700;7.184;2023-12-14T14:29:43;21.43;;;19.23;;
7398;SDS011;3740;50.700;7.184;2023-12-14T14:32:08;20.87;;;18.77;;
7398;SDS011;3740;50.700;7.184;2023-12-14T14:34:34;20.00;;;18.00;;
7398;SDS011;3740;50.700;7.184;2023-12-14T14:37:00;19.53;;;17.50;;
7398;SDS011;3740;50.700;7.184;2023-12-14T14:39:26;20.50;;;18.50;;
7398;SDS011;3740;50.700;7.184;2023-12-14T14:41:52;24.53;;;20.87;;
7398;SDS011;3740;50.700;7.184;2023-12-14T14:44:18;19.73;;;17.73;;
7398;SDS011;3740;50.700;7.184;2023-12-14T14:46:43;18.23;;;16.47;;
7398;SDS011;3740;50.700;7.184;2023-12-14T14:49:09;16.93;;;15.20;;
7398;SDS011;3740;50.700;7.184;2023-12-14T14:51:35;18.20;;;16.30;;
7398;SDS011;3740;50.700;7.184;2023-12-14T14:54:01;18.73;;;16.80;;
7398;SDS011;3740;50.700;7.184;2023-12-14T14:56:26;17.53;;;15.67;;